Terminal Aerodrome Forecast
Issued by NWS

Home | Current Version | Previous Version | Text Only | Print | Product List | Glossary On
Versions: 1 2 3 4 5 6 7 8 9 10 11 12 13 14 15
000
FTUS43 KDDC 231100 RRA
TAFHYS
TAF
KHYS 231150Z 2312/2412 15018KT P6SM SCT250
     FM231500 19027G37KT P6SM SCT250
     FM232200 18026G36KT P6SM VCTS SCT050CB
      TEMPO 2323/2402 4SM TSRA BKN050CB
     FM240300 36024G34KT P6SM +TSRA OVC010CB
     FM240600 36019G28KT P6SM OVC040=

USA.gov is the U.S. government's official web portal to all federal, state and local government web resources and services.